createdAt,value
2022-11-01T00:02:18.897Z,12.94
2022-11-01T00:04:48.119Z,12.96
2022-11-01T00:07:20.676Z,12.94
2022-11-01T00:09:49.193Z,12.96
2022-11-01T00:12:17.479Z,12.97
2022-11-01T00:14:47.799Z,12.99
2022-11-01T00:17:20.158Z,13.00
2022-11-01T00:19:49.654Z,12.97
2022-11-01T00:22:19.252Z,12.94
2022-11-01T00:24:48.116Z,12.93
2022-11-01T00:27:18.075Z,12.90
2022-11-01T00:29:46.041Z,12.87
2022-11-01T00:32:16.479Z,12.83
2022-11-01T00:34:44.765Z,12.79
2022-11-01T00:37:13.011Z,12.80
2022-11-01T00:39:42.903Z,12.77
2022-11-01T00:42:11.849Z,12.76
2022-11-01T00:44:39.909Z,12.76
2022-11-01T00:47:07.986Z,12.75
2022-11-01T00:49:40.036Z,12.73
2022-11-01T00:52:08.269Z,12.72
2022-11-01T00:54:36.510Z,12.68
2022-11-01T00:57:05.961Z,12.68
2022-11-01T00:59:35.050Z,12.68
2022-11-01T01:02:03.582Z,12.66
2022-11-01T01:04:33.476Z,12.65
2022-11-01T01:07:01.665Z,12.59
2022-11-01T01:09:30.868Z,12.56
2022-11-01T01:11:59.971Z,12.55
2022-11-01T01:14:32.378Z,12.51
2022-11-01T01:17:00.981Z,12.49
2022-11-01T01:19:30.285Z,12.46
2022-11-01T01:22:00.710Z,12.41
2022-11-01T01:24:29.149Z,12.36
2022-11-01T01:26:57.469Z,12.39
2022-11-01T01:29:26.700Z,12.35
2022-11-01T01:31:58.486Z,12.35
2022-11-01T01:34:26.678Z,12.35
2022-11-01T01:36:58.724Z,12.32
2022-11-01T01:39:27.029Z,12.33
2022-11-01T01:42:00.984Z,12.29
2022-11-01T01:45:16.256Z,12.29
2022-11-01T01:47:53.014Z,12.31
2022-11-01T01:50:26.895Z,12.32
2022-11-01T01:53:00.683Z,12.31
2022-11-01T01:55:33.862Z,12.33
2022-11-01T01:58:06.014Z,12.31
2022-11-01T02:00:35.427Z,12.31
2022-11-01T02:03:13.030Z,12.33
2022-11-01T02:05:46.223Z,12.35
2022-11-01T02:08:16.496Z,12.32
2022-11-01T02:10:46.641Z,12.31
2022-11-01T02:13:24.517Z,12.31
2022-11-01T02:16:04.807Z,12.33
2022-11-01T02:18:40.195Z,12.32
2022-11-01T02:21:36.897Z,12.33
2022-11-01T02:24:38.835Z,12.38
2022-11-01T02:27:15.143Z,12.33
2022-11-01T02:30:05.549Z,12.38
2022-11-01T02:32:48.177Z,12.41
2022-11-01T02:35:21.406Z,12.36
2022-11-01T02:37:54.088Z,12.31
2022-11-01T02:40:26.339Z,12.22
2022-11-01T02:42:59.225Z,12.20
2022-11-01T02:45:31.063Z,12.18
2022-11-01T02:48:01.511Z,12.15
2022-11-01T02:50:33.634Z,12.17
2022-11-01T02:53:02.239Z,12.17
2022-11-01T02:55:33.531Z,12.18
2022-11-01T02:58:04.958Z,12.12
2022-11-01T03:00:34.984Z,12.10
2022-11-01T03:03:14.139Z,12.05
2022-11-01T03:05:48.314Z,12.04
2022-11-01T03:08:21.582Z,12.04
2022-11-01T03:10:54.667Z,12.00
2022-11-01T03:13:36.153Z,11.97
2022-11-01T03:16:11.618Z,11.98
2022-11-01T03:18:50.098Z,11.94
2022-11-01T03:21:23.621Z,11.91
2022-11-01T03:23:55.755Z,11.87
2022-11-01T03:26:27.985Z,11.87
2022-11-01T03:28:57.206Z,11.84
2022-11-01T03:31:31.103Z,11.80
2022-11-01T03:34:02.161Z,11.80
2022-11-01T03:36:33.896Z,11.79
2022-11-01T03:39:05.862Z,11.74
2022-11-01T03:41:35.965Z,11.79
2022-11-01T03:44:04.638Z,11.79
2022-11-01T03:46:32.790Z,11.80
2022-11-01T03:49:02.582Z,11.82
2022-11-01T03:51:31.274Z,11.76
2022-11-01T03:53:59.407Z,11.79
2022-11-01T03:56:27.795Z,11.77
2022-11-01T03:59:01.680Z,11.80
2022-11-01T04:01:32.290Z,11.86
2022-11-01T04:04:03.025Z,11.82
2022-11-01T04:06:32.153Z,11.80
2022-11-01T04:09:00.234Z,11.77
2022-11-01T04:11:29.032Z,11.74
2022-11-01T04:14:17.311Z,11.79
2022-11-01T04:17:04.722Z,11.77
2022-11-01T04:19:52.519Z,11.79
2022-11-01T04:22:23.694Z,11.76
2022-11-01T04:24:53.651Z,11.76
2022-11-01T04:27:22.580Z,11.77
2022-11-01T04:29:50.802Z,11.74
2022-11-01T04:32:19.033Z,11.79
2022-11-01T04:34:51.766Z,11.80
2022-11-01T04:37:20.443Z,11.83
2022-11-01T04:39:48.765Z,11.90
2022-11-01T04:42:17.073Z,11.90
2022-11-01T04:44:46.899Z,11.94
2022-11-01T04:47:15.477Z,11.98
2022-11-01T04:49:44.480Z,12.00
2022-11-01T04:52:13.872Z,11.94
2022-11-01T04:54:42.944Z,11.95
2022-11-01T04:57:22.797Z,11.94
2022-11-01T04:59:51.676Z,11.90
2022-11-01T05:02:22.576Z,11.83
2022-11-01T05:04:51.332Z,11.83
2022-11-01T05:07:21.993Z,11.86
2022-11-01T05:09:50.419Z,11.90
2022-11-01T05:12:19.286Z,11.90
2022-11-01T05:14:47.284Z,11.87
2022-11-01T05:17:15.525Z,11.83
2022-11-01T05:19:46.637Z,11.84
2022-11-01T05:22:14.569Z,11.89
2022-11-01T05:24:44.798Z,11.91
2022-11-01T05:27:12.974Z,11.94
2022-11-01T05:29:41.688Z,11.93
2022-11-01T05:32:15.277Z,11.89
2022-11-01T05:34:44.439Z,11.80
2022-11-01T05:37:13.591Z,11.74
2022-11-01T05:39:41.709Z,11.74
2022-11-01T05:42:11.099Z,11.69
2022-11-01T05:44:39.575Z,11.64
2022-11-01T05:47:08.025Z,11.63
2022-11-01T05:49:37.298Z,11.60
2022-11-01T05:52:05.654Z,11.57
2022-11-01T05:54:35.349Z,11.57
2022-11-01T05:57:04.944Z,11.55
2022-11-01T05:59:35.543Z,11.55
2022-11-01T06:02:03.665Z,11.50
2022-11-01T06:04:32.237Z,11.50
2022-11-01T06:07:00.760Z,11.80
2022-11-01T06:09:31.790Z,11.84
2022-11-01T06:12:00.461Z,11.91
2022-11-01T06:14:30.107Z,12.03
2022-11-01T06:16:59.559Z,12.01
2022-11-01T06:19:28.313Z,12.11
2022-11-01T06:21:58.061Z,12.11
2022-11-01T06:24:26.479Z,12.10
2022-11-01T06:26:54.468Z,12.14
2022-11-01T06:29:23.100Z,12.28
2022-11-01T06:31:51.433Z,12.29
2022-11-01T06:34:21.271Z,12.29
2022-11-01T06:36:49.951Z,12.35
2022-11-01T06:39:19.019Z,12.14
2022-11-01T06:41:47.179Z,11.91
2022-11-01T06:44:31.792Z,11.77
2022-11-01T06:47:00.545Z,11.69
2022-11-01T06:49:32.761Z,11.64
2022-11-01T06:52:03.421Z,11.60
2022-11-01T06:54:34.698Z,11.55
2022-11-01T06:57:05.305Z,11.53
2022-11-01T06:59:36.098Z,11.49
2022-11-01T07:02:05.336Z,11.49
2022-11-01T07:07:29.230Z,11.45
2022-11-01T07:10:01.911Z,11.45
2022-11-01T07:12:35.419Z,11.46
2022-11-01T07:15:05.742Z,11.45
2022-11-01T07:17:34.130Z,11.49
2022-11-01T07:20:04.145Z,11.49
2022-11-01T07:22:32.732Z,11.50
2022-11-01T07:25:02.156Z,11.57
2022-11-01T07:27:30.698Z,11.60
2022-11-01T07:30:02.087Z,11.63
2022-11-01T07:32:30.323Z,11.69
2022-11-01T07:34:59.731Z,11.76
2022-11-01T07:37:32.238Z,11.80
2022-11-01T07:40:01.682Z,11.84
2022-11-01T07:42:30.039Z,11.89
2022-11-01T07:44:58.085Z,11.91
2022-11-01T07:47:26.377Z,11.90
2022-11-01T07:49:55.023Z,11.97
2022-11-01T07:52:23.602Z,12.01
2022-11-01T07:54:54.599Z,12.07
2022-11-01T07:57:24.024Z,12.11
2022-11-01T07:59:53.149Z,12.15
2022-11-01T08:02:22.542Z,12.21
2022-11-01T08:04:50.716Z,12.25
2022-11-01T08:07:20.621Z,12.31
2022-11-01T08:09:49.574Z,12.36
2022-11-01T08:12:21.674Z,12.44
2022-11-01T08:14:50.889Z,12.48
2022-11-01T08:17:18.839Z,12.55
2022-11-01T08:19:46.781Z,12.68
2022-11-01T08:22:15.111Z,12.76
2022-11-01T08:24:43.920Z,12.82
2022-11-01T08:27:12.236Z,12.89
2022-11-01T08:29:41.955Z,12.94
2022-11-01T08:32:11.178Z,13.03
2022-11-01T08:34:40.092Z,13.10
2022-11-01T08:37:11.300Z,13.19
2022-11-01T08:39:41.832Z,13.24
2022-11-01T08:42:10.722Z,13.28
2022-11-01T08:44:41.970Z,13.35
2022-11-01T08:47:12.511Z,13.47
2022-11-01T08:49:41.083Z,13.57
2022-11-01T08:52:09.156Z,13.65
2022-11-01T08:54:37.644Z,13.70
2022-11-01T08:57:10.868Z,13.73
2022-11-01T08:59:38.925Z,13.82
2022-11-01T09:02:13.609Z,13.95
2022-11-01T09:04:42.628Z,14.06
2022-11-01T09:07:14.997Z,14.17
2022-11-01T09:09:44.386Z,14.30
2022-11-01T09:12:17.382Z,14.38
2022-11-01T09:14:49.163Z,14.47
2022-11-01T09:17:19.822Z,14.58
2022-11-01T09:19:48.154Z,14.65
2022-11-01T09:22:16.717Z,14.77
2022-11-01T09:24:45.452Z,14.84
2022-11-01T09:27:14.180Z,14.89
2022-11-01T09:29:46.709Z,14.82
2022-11-01T09:32:20.506Z,14.78
2022-11-01T09:34:52.949Z,14.79
2022-11-01T09:37:21.055Z,14.77
2022-11-01T09:39:49.789Z,14.69
2022-11-01T09:42:25.527Z,14.67
2022-11-01T09:44:55.763Z,14.65
2022-11-01T09:47:28.215Z,14.61
2022-11-01T09:50:09.285Z,14.58
2022-11-01T09:52:40.876Z,14.56
2022-11-01T09:55:15.355Z,14.58
2022-11-01T09:57:47.043Z,14.60
2022-11-01T10:00:18.946Z,14.64
2022-11-01T10:03:17.377Z,14.64
2022-11-01T10:06:13.094Z,14.65
2022-11-01T10:08:52.808Z,14.69
2022-11-01T10:11:40.029Z,14.72
2022-11-01T10:14:17.100Z,14.74
2022-11-01T10:16:51.560Z,14.82
2022-11-01T10:19:24.565Z,14.86
2022-11-01T10:21:55.007Z,14.92
2022-11-01T10:24:28.521Z,15.02
2022-11-01T10:27:04.187Z,15.06
2022-11-01T10:29:40.351Z,15.12
2022-11-01T10:32:17.370Z,15.12
2022-11-01T10:34:49.947Z,15.13
2022-11-01T10:37:25.701Z,15.20
2022-11-01T10:39:58.910Z,15.35
2022-11-01T10:42:32.799Z,15.50
2022-11-01T10:45:06.522Z,15.60
2022-11-01T10:47:35.714Z,15.68
2022-11-01T10:50:10.766Z,15.79
2022-11-01T10:52:49.595Z,15.92
2022-11-01T10:55:22.972Z,16.08
2022-11-01T10:57:56.353Z,16.19
2022-11-01T11:00:24.725Z,16.40
2022-11-01T11:02:55.107Z,16.56
2022-11-01T11:05:26.918Z,16.80
2022-11-01T11:07:56.980Z,16.87
2022-11-01T11:10:30.667Z,16.95
2022-11-01T11:13:02.685Z,16.91
2022-11-01T11:15:39.866Z,16.92
2022-11-01T11:18:16.347Z,16.87
2022-11-01T11:20:46.243Z,16.80
2022-11-01T11:23:14.475Z,16.79
2022-11-01T11:25:44.894Z,16.69
2022-11-01T11:28:25.690Z,16.62
2022-11-01T11:30:55.207Z,16.62
2022-11-01T11:33:24.023Z,16.62
2022-11-01T11:35:59.946Z,16.62
2022-11-01T11:38:43.451Z,16.60
2022-11-01T11:41:13.313Z,16.59
2022-11-01T11:43:43.152Z,16.53
2022-11-01T11:46:22.676Z,16.43
2022-11-01T11:48:52.445Z,16.36
2022-11-01T11:51:22.408Z,16.32
2022-11-01T11:54:18.962Z,16.26
2022-11-01T11:56:53.074Z,16.19
2022-11-01T11:59:26.906Z,16.18
2022-11-01T12:01:58.620Z,16.14
2022-11-01T12:04:35.516Z,16.14
2022-11-01T12:07:06.903Z,16.09
2022-11-01T12:09:40.585Z,16.12
2022-11-01T12:12:18.062Z,16.09
2022-11-01T12:14:48.182Z,16.11
2022-11-01T12:17:38.520Z,16.09
2022-11-01T12:20:15.506Z,16.11
2022-11-01T12:22:53.691Z,16.11
2022-11-01T12:25:25.422Z,16.12
2022-11-01T12:27:59.365Z,16.11
2022-11-01T12:30:29.954Z,16.11
2022-11-01T12:33:00.326Z,16.14
2022-11-01T12:35:32.033Z,16.16
2022-11-01T12:38:22.946Z,16.23
2022-11-01T12:40:53.108Z,16.28
2022-11-01T12:43:23.122Z,16.39
2022-11-01T12:45:56.046Z,16.44
2022-11-01T12:48:29.761Z,16.47
2022-11-01T12:51:04.675Z,16.50
2022-11-01T12:53:39.997Z,16.53
2022-11-01T12:56:11.191Z,16.57
2022-11-01T12:58:39.499Z,16.60
2022-11-01T13:01:22.734Z,16.56
2022-11-01T13:03:59.912Z,16.59
2022-11-01T13:06:46.681Z,16.64
2022-11-01T13:09:23.270Z,16.76
2022-11-01T13:11:58.988Z,16.81
2022-11-01T13:14:42.464Z,16.84
2022-11-01T13:17:12.743Z,16.83
2022-11-01T13:19:45.285Z,16.88
2022-11-01T13:22:14.725Z,16.85
2022-11-01T13:24:47.169Z,16.83
2022-11-01T13:27:23.141Z,16.77
2022-11-01T13:29:56.624Z,16.76
2022-11-01T13:32:32.455Z,16.71
2022-11-01T13:35:17.466Z,16.71
2022-11-01T13:37:51.826Z,16.80
2022-11-01T13:40:25.234Z,16.87
2022-11-01T13:42:58.226Z,16.90
2022-11-01T13:45:54.455Z,16.97
2022-11-01T13:48:30.418Z,17.00
2022-11-01T13:51:12.275Z,17.00
2022-11-01T13:53:45.384Z,17.01
2022-11-01T13:56:21.647Z,17.00
2022-11-01T13:58:50.201Z,16.97
2022-11-01T14:01:32.294Z,16.95
2022-11-01T14:04:49.909Z,16.88
2022-11-01T14:07:18.216Z,16.85
2022-11-01T14:09:50.266Z,16.81
2022-11-01T14:12:35.736Z,16.81
2022-11-01T14:15:23.452Z,16.80
2022-11-01T14:18:09.828Z,16.80
2022-11-01T14:20:44.686Z,16.81
2022-11-01T14:23:55.126Z,16.80
2022-11-01T14:26:45.755Z,16.81
2022-11-01T14:29:17.898Z,16.81
2022-11-01T14:31:47.743Z,16.81
2022-11-01T14:34:25.280Z,16.81
2022-11-01T14:36:54.298Z,16.84
2022-11-01T14:39:27.855Z,16.81
2022-11-01T14:41:58.013Z,16.76
2022-11-01T14:44:32.775Z,16.76
2022-11-01T14:47:05.550Z,16.74
2022-11-01T14:49:42.727Z,16.66
2022-11-01T14:52:17.136Z,16.64
2022-11-01T14:54:48.038Z,16.59
2022-11-01T14:57:26.276Z,16.53
2022-11-01T14:59:59.406Z,16.52
2022-11-01T15:02:31.883Z,16.49
2022-11-01T15:05:01.994Z,16.42
2022-11-01T15:07:34.758Z,16.36
2022-11-01T15:10:05.786Z,16.28
2022-11-01T15:12:36.430Z,16.22
2022-11-01T15:15:15.692Z,16.16
2022-11-01T15:17:47.591Z,16.08
2022-11-01T15:20:18.230Z,16.05
2022-11-01T15:22:46.791Z,16.00
2022-11-01T15:25:22.587Z,15.94
2022-11-01T15:27:55.528Z,15.91
2022-11-01T15:30:31.065Z,15.87
2022-11-01T15:33:17.518Z,15.79
2022-11-01T15:35:54.706Z,15.73
2022-11-01T15:38:25.639Z,15.70
2022-11-01T15:40:56.597Z,15.63
2022-11-01T15:43:27.024Z,15.60
2022-11-01T15:45:58.884Z,15.54
2022-11-01T15:48:32.084Z,15.50
2022-11-01T15:51:02.785Z,15.43
2022-11-01T15:53:33.593Z,15.40
2022-11-01T15:56:05.299Z,15.35
2022-11-01T15:58:40.750Z,15.29
2022-11-01T16:01:13.966Z,15.25
2022-11-01T16:03:45.806Z,15.19
2022-11-01T16:06:18.670Z,15.15
2022-11-01T16:08:55.975Z,15.07
2022-11-01T16:11:27.464Z,15.05
2022-11-01T16:14:00.986Z,15.00
2022-11-01T16:16:46.357Z,14.98
2022-11-01T16:19:28.208Z,14.93
2022-11-01T16:21:56.397Z,14.89
2022-11-01T16:24:32.260Z,14.89
2022-11-01T16:27:03.785Z,14.88
2022-11-01T16:29:42.961Z,14.86
2022-11-01T16:32:23.145Z,14.85
2022-11-01T16:34:52.824Z,14.85
2022-11-01T16:37:24.107Z,14.81
2022-11-01T16:39:53.654Z,14.81
2022-11-01T16:42:24.587Z,14.81
2022-11-01T16:44:57.352Z,14.82
2022-11-01T16:47:29.187Z,14.79
2022-11-01T16:49:59.471Z,14.72
2022-11-01T16:52:31.235Z,14.69
2022-11-01T16:55:01.435Z,14.65
2022-11-01T16:57:30.032Z,14.65
2022-11-01T17:00:08.561Z,14.67
2022-11-01T17:02:42.001Z,14.61
2022-11-01T17:05:18.891Z,14.51
2022-11-01T17:07:56.054Z,14.48
2022-11-01T17:10:31.137Z,14.44
2022-11-01T17:13:03.366Z,14.41
2022-11-01T17:15:34.741Z,14.41
2022-11-01T17:18:11.287Z,14.40
2022-11-01T17:20:42.326Z,14.27
2022-11-01T17:23:17.092Z,14.13
2022-11-01T17:25:49.419Z,14.05
2022-11-01T17:28:20.725Z,14.00
2022-11-01T17:30:55.051Z,13.90
2022-11-01T17:33:26.110Z,13.85
2022-11-01T17:35:54.982Z,13.75
2022-11-01T17:38:30.234Z,13.65
2022-11-01T17:40:59.893Z,13.55
2022-11-01T17:43:30.649Z,13.47
2022-11-01T17:46:00.636Z,13.42
2022-11-01T17:48:37.455Z,13.35
2022-11-01T17:51:06.953Z,13.30
2022-11-01T17:53:39.346Z,13.23
2022-11-01T17:56:07.604Z,13.20
2022-11-01T17:58:35.660Z,13.20
2022-11-01T18:01:07.399Z,13.23
2022-11-01T18:03:40.114Z,13.20
2022-11-01T18:06:09.285Z,13.17
2022-11-01T18:08:38.679Z,13.14
2022-11-01T18:11:14.880Z,13.11
2022-11-01T18:13:49.752Z,13.04
2022-11-01T18:16:29.335Z,12.96
2022-11-01T18:19:39.164Z,12.96
2022-11-01T18:22:21.727Z,12.90
2022-11-01T18:24:56.038Z,12.84
2022-11-01T18:27:25.622Z,12.87
2022-11-01T18:29:54.628Z,12.87
2022-11-01T18:32:26.507Z,12.90
2022-11-01T18:35:00.901Z,12.90
2022-11-01T18:37:33.292Z,12.84
2022-11-01T18:40:03.219Z,12.83
2022-11-01T18:42:34.178Z,12.80
2022-11-01T18:45:25.575Z,12.75
2022-11-01T18:48:02.914Z,12.69
2022-11-01T18:50:41.604Z,12.63
2022-11-01T18:53:15.697Z,12.62
2022-11-01T18:55:48.814Z,12.59
2022-11-01T18:58:22.950Z,12.55
2022-11-01T19:01:04.172Z,12.51
2022-11-01T19:03:34.327Z,12.44
2022-11-01T19:06:14.986Z,12.41
2022-11-01T19:08:45.071Z,12.39
2022-11-01T19:11:15.239Z,12.38
2022-11-01T19:13:47.039Z,12.39
2022-11-01T19:18:46.234Z,12.24
2022-11-01T19:21:18.731Z,12.14
2022-11-01T19:23:53.017Z,12.03
2022-11-01T19:26:25.831Z,11.98
2022-11-01T19:28:54.992Z,11.97
2022-11-01T19:31:29.634Z,11.91
2022-11-01T19:34:03.028Z,11.89
2022-11-01T19:42:27.058Z,11.84
2022-11-01T19:45:03.025Z,11.79
2022-11-01T19:47:38.699Z,11.69
2022-11-01T19:50:22.294Z,11.62
2022-11-01T19:52:53.187Z,11.62
2022-11-01T19:55:38.803Z,11.60
2022-11-01T19:58:28.536Z,11.52
2022-11-01T20:01:24.107Z,11.49
2022-11-01T20:03:55.732Z,11.40
2022-11-01T20:06:31.638Z,11.38
2022-11-01T20:09:06.408Z,11.35
2022-11-01T20:11:39.005Z,11.35
2022-11-01T20:14:06.986Z,11.38
2022-11-01T20:16:35.300Z,11.38
2022-11-01T20:19:03.558Z,11.36
2022-11-01T20:21:31.942Z,11.34
2022-11-01T20:24:03.912Z,11.31
2022-11-01T20:26:33.672Z,11.28
2022-11-01T20:29:02.105Z,11.19
2022-11-01T20:31:33.828Z,11.07
2022-11-01T20:34:04.100Z,10.97
2022-11-01T20:36:33.014Z,10.88
2022-11-01T20:39:03.251Z,10.81
2022-11-01T20:41:35.899Z,10.74
2022-11-01T20:44:04.961Z,10.67
2022-11-01T20:46:37.191Z,10.63
2022-11-01T20:49:06.432Z,10.63
2022-11-01T20:51:35.114Z,10.55
2022-11-01T20:54:10.126Z,10.55
2022-11-01T20:56:45.157Z,10.52
2022-11-01T20:59:15.825Z,10.50
2022-11-01T21:01:49.500Z,10.37
2022-11-01T21:04:22.031Z,10.32
2022-11-01T21:06:51.011Z,10.22
2022-11-01T21:09:36.068Z,10.23
2022-11-01T21:12:26.318Z,10.20
2022-11-01T21:14:56.305Z,10.16
2022-11-01T21:17:28.713Z,10.09
2022-11-01T21:19:58.254Z,10.06
2022-11-01T21:22:28.447Z,10.09
2022-11-01T21:24:56.539Z,10.06
2022-11-01T21:27:31.256Z,10.16
2022-11-01T21:30:15.699Z,10.34
2022-11-01T21:32:45.534Z,10.49
2022-11-01T21:35:38.867Z,10.60
2022-11-01T21:38:27.341Z,10.57
2022-11-01T21:40:58.314Z,10.59
2022-11-01T21:43:32.445Z,10.53
2022-11-01T21:46:01.851Z,10.50
2022-11-01T21:48:32.886Z,10.45
2022-11-01T21:51:02.293Z,10.40
2022-11-01T21:53:33.036Z,10.37
2022-11-01T21:56:00.971Z,10.39
2022-11-01T21:58:30.712Z,10.36
2022-11-01T22:00:59.002Z,10.39
2022-11-01T22:03:27.533Z,10.40
2022-11-01T22:05:55.900Z,10.37
2022-11-01T22:08:24.376Z,10.32
2022-11-01T22:10:53.626Z,10.26
2022-11-01T22:13:22.376Z,10.25
2022-11-01T22:15:52.865Z,10.32
2022-11-01T22:18:25.127Z,10.45
2022-11-01T22:20:53.433Z,10.57
2022-11-01T22:23:21.711Z,10.63
2022-11-01T22:25:51.775Z,10.68
2022-11-01T22:28:20.476Z,10.71
2022-11-01T22:30:53.231Z,10.73
2022-11-01T22:33:22.372Z,10.67
2022-11-01T22:35:51.886Z,10.67
2022-11-01T22:38:23.313Z,10.66
2022-11-01T22:43:26.519Z,10.63
2022-11-01T22:46:10.924Z,10.61
2022-11-01T22:48:39.116Z,10.60
2022-11-01T22:51:18.389Z,10.57
2022-11-01T22:53:48.776Z,10.56
2022-11-01T22:56:17.334Z,10.52
2022-11-01T22:58:46.131Z,10.47
2022-11-01T23:01:25.863Z,10.47
2022-11-01T23:04:00.048Z,10.49
2022-11-01T23:06:33.294Z,10.49
2022-11-01T23:09:14.723Z,10.46
2022-11-01T23:12:03.251Z,10.46
2022-11-01T23:14:45.922Z,10.46
2022-11-01T23:17:22.900Z,10.42
2022-11-01T23:19:52.850Z,10.40
2022-11-01T23:22:28.456Z,10.39
2022-11-01T23:24:57.709Z,10.37
2022-11-01T23:27:28.413Z,10.33
2022-11-01T23:29:59.837Z,10.32
2022-11-01T23:32:29.706Z,10.29
2022-11-01T23:35:04.255Z,10.23
2022-11-01T23:37:33.501Z,10.20
2022-11-01T23:40:02.573Z,10.15
2022-11-01T23:42:34.278Z,10.08
2022-11-01T23:45:10.209Z,10.06
2022-11-01T23:47:41.688Z,10.03
2022-11-01T23:50:16.837Z,10.01
2022-11-01T23:52:47.394Z,9.97
2022-11-01T23:55:24.409Z,9.92
2022-11-01T23:57:53.957Z,9.94
